createdAt,value
2018-11-13T00:00:23.067Z,6.40
2018-11-13T00:02:52.803Z,6.33
2018-11-13T00:05:22.449Z,6.37
2018-11-13T00:07:51.700Z,6.90
2018-11-13T00:10:21.099Z,7.13
2018-11-13T00:12:50.215Z,7.90
2018-11-13T00:15:19.509Z,7.67
2018-11-13T00:17:48.720Z,8.40
2018-11-13T00:20:18.932Z,8.83
2018-11-13T00:22:48.165Z,9.17
2018-11-13T00:25:18.297Z,9.83
2018-11-13T00:27:47.436Z,9.17
2018-11-13T00:30:24.633Z,9.40
2018-11-13T00:32:53.995Z,9.83
2018-11-13T00:35:23.412Z,10.00
2018-11-13T00:37:52.693Z,9.90
2018-11-13T00:40:21.840Z,9.43
2018-11-13T00:42:51.039Z,9.23
2018-11-13T00:45:20.218Z,9.50
2018-11-13T00:47:49.422Z,8.53
2018-11-13T00:50:19.735Z,9.83
2018-11-13T00:52:49.626Z,9.30
2018-11-13T00:55:19.020Z,9.63
2018-11-13T00:57:49.057Z,9.03
2018-11-13T01:00:20.830Z,9.17
2018-11-13T01:02:49.924Z,9.30
2018-11-13T01:05:20.370Z,8.57
2018-11-13T01:07:50.708Z,8.30
2018-11-13T01:10:20.530Z,8.00
2018-11-13T01:12:49.773Z,8.20
2018-11-13T01:15:20.297Z,8.57
2018-11-13T01:17:49.733Z,7.73
2018-11-13T01:20:19.552Z,8.13
2018-11-13T01:22:48.780Z,8.20
2018-11-13T01:25:18.445Z,8.07
2018-11-13T01:27:47.654Z,8.93
2018-11-13T01:30:17.599Z,7.97
2018-11-13T01:32:47.187Z,8.20
2018-11-13T01:35:17.420Z,7.73
2018-11-13T01:37:46.938Z,8.00
2018-11-13T01:40:17.809Z,8.00
2018-11-13T01:42:46.987Z,7.30
2018-11-13T01:45:17.083Z,7.63
2018-11-13T01:47:46.208Z,7.77
2018-11-13T01:50:15.678Z,7.80
2018-11-13T01:52:44.843Z,7.90
2018-11-13T01:55:15.082Z,8.17
2018-11-13T01:57:44.225Z,8.00
2018-11-13T02:00:17.348Z,7.70
2018-11-13T02:02:47.737Z,7.73
2018-11-13T02:05:17.835Z,7.50
2018-11-13T02:07:47.077Z,7.37
2018-11-13T02:10:16.787Z,7.47
2018-11-13T02:12:46.236Z,7.53
2018-11-13T02:15:15.469Z,7.63
2018-11-13T02:17:44.911Z,7.77
2018-11-13T02:20:16.792Z,6.90
2018-11-13T02:22:45.957Z,7.23
2018-11-13T02:25:16.309Z,7.20
2018-11-13T02:27:45.777Z,7.60
2018-11-13T02:30:16.712Z,7.00
2018-11-13T02:32:46.536Z,7.37
2018-11-13T02:35:16.192Z,6.63
2018-11-13T02:37:45.568Z,7.00
2018-11-13T02:40:14.882Z,6.53
2018-11-13T02:42:44.109Z,7.17
2018-11-13T02:45:15.041Z,6.90
2018-11-13T02:47:44.263Z,6.10
2018-11-13T02:50:15.558Z,6.20
2018-11-13T02:52:44.720Z,6.13
2018-11-13T02:55:14.376Z,6.13
2018-11-13T02:57:44.223Z,6.33
2018-11-13T03:00:15.091Z,6.07
2018-11-13T03:02:44.380Z,6.13
2018-11-13T03:05:15.779Z,6.80
2018-11-13T03:07:44.946Z,6.33
2018-11-13T03:10:15.609Z,6.30
2018-11-13T03:12:44.752Z,6.03
2018-11-13T03:15:15.117Z,6.10
2018-11-13T03:17:44.327Z,5.80
2018-11-13T03:20:15.257Z,5.87
2018-11-13T03:22:45.031Z,6.17
2018-11-13T03:25:15.827Z,5.90
2018-11-13T03:27:44.947Z,5.90
2018-11-13T03:30:20.561Z,6.10
2018-11-13T03:32:49.788Z,5.87
2018-11-13T03:35:18.956Z,6.10
2018-11-13T03:37:48.109Z,5.73
2018-11-13T03:40:17.513Z,5.87
2018-11-13T03:42:47.656Z,5.47
2018-11-13T03:45:17.392Z,6.00
2018-11-13T03:47:46.556Z,5.63
2018-11-13T03:50:17.048Z,5.77
2018-11-13T03:52:46.632Z,5.70
2018-11-13T03:55:16.315Z,5.63
2018-11-13T03:57:46.168Z,5.13
2018-11-13T04:00:16.597Z,4.50
2018-11-13T04:02:45.791Z,5.07
2018-11-13T04:05:17.141Z,4.70
2018-11-13T04:07:49.370Z,4.90
2018-11-13T04:10:19.495Z,4.93
2018-11-13T04:12:48.658Z,4.53
2018-11-13T04:15:21.090Z,4.83
2018-11-13T04:17:50.248Z,4.40
2018-11-13T04:20:20.661Z,4.40
2018-11-13T04:22:49.901Z,4.67
2018-11-13T04:25:19.063Z,4.60
2018-11-13T04:27:48.247Z,4.90
2018-11-13T04:30:18.588Z,4.40
2018-11-13T04:32:47.773Z,4.67
2018-11-13T04:35:17.762Z,4.70
2018-11-13T04:37:46.861Z,4.53
2018-11-13T04:40:17.128Z,4.60
2018-11-13T04:42:47.717Z,4.60
2018-11-13T04:45:18.104Z,4.27
2018-11-13T04:47:48.095Z,4.30
2018-11-13T04:50:18.175Z,4.20
2018-11-13T04:52:47.419Z,4.50
2018-11-13T04:55:16.839Z,4.00
2018-11-13T04:57:46.853Z,4.33
2018-11-13T05:00:20.985Z,4.10
2018-11-13T05:02:50.243Z,4.37
2018-11-13T05:05:20.125Z,4.63
2018-11-13T05:07:53.680Z,4.53
2018-11-13T05:10:23.128Z,4.73
2018-11-13T05:12:52.417Z,4.07
2018-11-13T05:15:21.576Z,4.37
2018-11-13T05:17:50.749Z,4.50
2018-11-13T05:20:19.838Z,4.53
2018-11-13T05:22:49.017Z,4.97
2018-11-13T05:25:20.336Z,4.53
2018-11-13T05:27:49.470Z,4.47
2018-11-13T05:30:19.830Z,4.47
2018-11-13T05:32:49.080Z,4.63
2018-11-13T05:35:19.269Z,5.30
2018-11-13T05:37:48.560Z,5.00
2018-11-13T05:40:20.971Z,5.13
2018-11-13T05:42:50.148Z,5.23
2018-11-13T05:45:21.798Z,5.87
2018-11-13T05:47:50.998Z,5.70
2018-11-13T05:50:20.613Z,6.23
2018-11-13T05:52:51.794Z,6.33
2018-11-13T05:55:20.920Z,5.93
2018-11-13T05:57:50.180Z,6.23
2018-11-13T06:00:21.045Z,7.00
2018-11-13T06:02:50.195Z,5.77
2018-11-13T06:05:19.326Z,7.07
2018-11-13T06:07:48.373Z,6.37
2018-11-13T06:10:17.620Z,6.07
2018-11-13T06:12:46.824Z,5.57
2018-11-13T06:15:15.888Z,6.57
2018-11-13T06:17:45.092Z,6.30
2018-11-13T06:20:15.336Z,6.37
2018-11-13T06:22:44.549Z,6.30
2018-11-13T06:25:15.224Z,6.03
2018-11-13T06:27:45.303Z,6.43
2018-11-13T06:30:16.765Z,6.20
2018-11-13T06:32:46.506Z,6.17
2018-11-13T06:35:15.573Z,6.20
2018-11-13T06:37:44.614Z,6.07
2018-11-13T06:40:13.805Z,6.30
2018-11-13T06:42:42.961Z,5.80
2018-11-13T06:45:16.241Z,6.10
2018-11-13T06:47:46.042Z,6.00
2018-11-13T06:50:15.175Z,5.97
2018-11-13T06:52:44.923Z,5.90
2018-11-13T06:55:35.531Z,6.10
2018-11-13T06:58:04.866Z,6.03
2018-11-13T07:00:34.011Z,6.20
2018-11-13T07:03:03.187Z,6.13
2018-11-13T07:05:32.348Z,5.77
2018-11-13T07:08:01.468Z,6.17
2018-11-13T07:10:30.832Z,6.20
2018-11-13T07:13:00.189Z,5.80
2018-11-13T07:15:30.580Z,6.10
2018-11-13T07:18:02.060Z,6.40
2018-11-13T07:20:32.393Z,5.50
2018-11-13T07:23:01.565Z,6.07
2018-11-13T07:25:30.685Z,5.97
2018-11-13T07:27:59.947Z,6.30
2018-11-13T07:30:29.491Z,5.33
2018-11-13T07:32:58.598Z,6.30
2018-11-13T07:35:27.709Z,5.90
2018-11-13T07:37:58.140Z,6.13
2018-11-13T07:40:27.328Z,5.80
2018-11-13T07:42:56.614Z,5.63
2018-11-13T07:45:25.861Z,5.63
2018-11-13T07:47:55.341Z,5.33
2018-11-13T07:50:24.505Z,5.63
2018-11-13T07:52:53.646Z,5.90
2018-11-13T07:55:22.709Z,5.53
2018-11-13T07:57:51.791Z,5.80
2018-11-13T08:00:22.407Z,5.33
2018-11-13T08:02:52.828Z,5.57
2018-11-13T08:05:22.220Z,5.50
2018-11-13T08:07:51.279Z,5.70
2018-11-13T08:10:20.640Z,5.77
2018-11-13T08:12:49.802Z,5.57
2018-11-13T08:15:19.009Z,5.30
2018-11-13T08:17:48.094Z,5.67
2018-11-13T08:20:17.357Z,5.80
2018-11-13T08:22:46.536Z,5.30
2018-11-13T08:25:15.822Z,5.93
2018-11-13T08:27:45.072Z,5.57
2018-11-13T08:30:16.702Z,5.60
2018-11-13T08:32:46.482Z,5.47
2018-11-13T08:35:16.056Z,5.87
2018-11-13T08:37:45.225Z,5.90
2018-11-13T08:40:15.565Z,6.27
2018-11-13T08:42:45.562Z,6.07
2018-11-13T08:45:15.228Z,5.70
2018-11-13T08:47:44.385Z,5.50
2018-11-13T08:50:14.415Z,5.63
2018-11-13T08:52:44.270Z,5.43
2018-11-13T08:55:13.777Z,6.50
2018-11-13T08:57:43.157Z,5.57
2018-11-13T09:00:14.371Z,5.87
2018-11-13T09:02:44.202Z,5.60
2018-11-13T09:05:13.386Z,5.97
2018-11-13T09:07:42.532Z,6.50
2018-11-13T09:10:12.966Z,6.00
2018-11-13T09:12:42.875Z,5.47
2018-11-13T09:15:13.687Z,5.73
2018-11-13T09:17:42.864Z,5.53
2018-11-13T09:20:15.312Z,6.23
2018-11-13T09:22:44.472Z,5.70
2018-11-13T09:25:15.005Z,7.20
2018-11-13T09:27:44.196Z,6.90
2018-11-13T09:30:15.459Z,7.23
2018-11-13T09:32:45.024Z,7.53
2018-11-13T09:35:15.231Z,8.00
2018-11-13T09:37:44.423Z,8.27
2018-11-13T09:40:18.007Z,7.83
2018-11-13T09:42:48.283Z,8.40
2018-11-13T09:45:17.882Z,8.17
2018-11-13T09:47:47.073Z,8.30
2018-11-13T09:50:17.512Z,8.63
2018-11-13T09:52:47.925Z,8.70
2018-11-13T09:55:18.355Z,8.33
2018-11-13T09:57:47.649Z,8.40
2018-11-13T10:00:19.705Z,8.20
2018-11-13T10:02:50.468Z,8.70
2018-11-13T10:05:20.171Z,8.97
2018-11-13T10:07:50.158Z,8.77
2018-11-13T10:10:19.258Z,9.03
2018-11-13T10:12:48.740Z,9.13
2018-11-13T10:15:24.228Z,9.07
2018-11-13T10:17:53.457Z,8.63
2018-11-13T10:20:22.456Z,8.13
2018-11-13T10:22:52.748Z,9.93
2018-11-13T10:25:21.836Z,9.47
2018-11-13T10:27:50.978Z,8.83
2018-11-13T10:30:21.415Z,9.90
2018-11-13T10:32:51.212Z,8.67
2018-11-13T10:35:21.752Z,9.00
2018-11-13T10:37:50.873Z,8.83
2018-11-13T10:40:21.089Z,9.57
2018-11-13T10:42:50.575Z,10.17
2018-11-13T10:45:23.157Z,10.13
2018-11-13T10:47:52.392Z,8.63
2018-11-13T10:50:22.852Z,10.43
2018-11-13T10:52:52.146Z,9.70
2018-11-13T10:55:21.231Z,10.37
2018-11-13T10:57:50.433Z,11.00
2018-11-13T11:00:24.674Z,9.93
2018-11-13T11:03:56.244Z,9.47
2018-11-13T11:06:25.365Z,10.87
2018-11-13T11:08:54.371Z,10.33
2018-11-13T11:11:23.521Z,11.13
2018-11-13T11:13:52.769Z,10.83
2018-11-13T11:16:22.362Z,10.20
2018-11-13T11:18:51.676Z,11.80
2018-11-13T11:21:20.738Z,10.30
2018-11-13T11:23:49.960Z,10.30
2018-11-13T11:26:19.095Z,9.47
2018-11-13T11:28:48.206Z,10.90
2018-11-13T11:31:18.349Z,12.60
2018-11-13T11:33:47.541Z,10.53
2018-11-13T11:36:16.750Z,10.93
2018-11-13T11:38:45.911Z,9.20
2018-11-13T11:41:15.024Z,10.30
2018-11-13T11:43:44.146Z,10.63
2018-11-13T11:46:13.285Z,10.47
2018-11-13T11:48:42.429Z,12.07
2018-11-13T11:51:11.468Z,10.63
2018-11-13T11:53:40.648Z,12.20
2018-11-13T11:56:09.708Z,12.23
2018-11-13T11:58:38.810Z,12.60
2018-11-13T12:01:10.731Z,13.27
2018-11-13T12:03:39.953Z,12.30
2018-11-13T12:06:09.000Z,13.10
2018-11-13T12:08:38.121Z,12.23
2018-11-13T12:11:07.174Z,11.77
2018-11-13T12:13:36.385Z,12.93
2018-11-13T12:16:05.588Z,13.43
2018-11-13T12:18:34.690Z,12.43
2018-11-13T12:21:03.829Z,12.63
2018-11-13T12:23:32.923Z,13.23
2018-11-13T12:26:02.071Z,13.77
2018-11-13T12:28:31.185Z,12.80
2018-11-13T12:31:00.357Z,13.20
2018-11-13T12:33:29.568Z,11.87
2018-11-13T12:35:58.787Z,14.27
2018-11-13T12:38:27.929Z,14.10
2018-11-13T12:40:57.156Z,14.07
2018-11-13T12:43:26.206Z,14.77
2018-11-13T12:45:55.461Z,13.17
2018-11-13T12:48:24.596Z,14.20
2018-11-13T12:51:02.846Z,16.07
2018-11-13T12:53:32.183Z,14.40
2018-11-13T12:56:01.385Z,17.60
2018-11-13T12:58:31.451Z,17.50
2018-11-13T13:01:01.096Z,15.60
2018-11-13T13:03:30.312Z,14.50
2018-11-13T13:05:59.381Z,16.93
2018-11-13T13:08:28.551Z,14.47
2018-11-13T13:10:57.681Z,14.60
2018-11-13T13:13:26.829Z,16.47
2018-11-13T13:15:55.929Z,15.90
2018-11-13T13:18:25.005Z,15.03
2018-11-13T13:20:54.110Z,18.03
2018-11-13T13:23:23.296Z,18.37
2018-11-13T13:25:52.564Z,17.70
2018-11-13T13:28:21.584Z,17.70
2018-11-13T13:30:50.718Z,17.80
2018-11-13T13:33:19.868Z,17.93
2018-11-13T13:35:50.397Z,16.47
2018-11-13T13:38:19.493Z,18.30
2018-11-13T13:40:50.132Z,17.07
2018-11-13T13:43:19.922Z,18.13
2018-11-13T13:45:49.876Z,19.20
2018-11-13T13:48:19.368Z,18.70
2018-11-13T13:50:48.710Z,20.17
2018-11-13T13:53:19.010Z,20.50
2018-11-13T13:55:48.657Z,21.00
2018-11-13T13:58:18.349Z,19.60
2018-11-13T14:00:47.702Z,19.77
2018-11-13T14:03:17.041Z,20.33
2018-11-13T14:05:46.739Z,19.20
2018-11-13T14:08:16.606Z,17.20
2018-11-13T14:10:45.957Z,18.90
2018-11-13T14:13:15.499Z,20.17
2018-11-13T14:15:44.581Z,18.17
2018-11-13T14:18:14.034Z,19.33
2018-11-13T14:20:43.118Z,18.10
2018-11-13T14:23:12.222Z,17.90
2018-11-13T14:25:41.377Z,18.20
2018-11-13T14:28:10.462Z,18.27
2018-11-13T14:30:39.640Z,18.57
2018-11-13T14:33:10.230Z,17.97
2018-11-13T14:35:39.467Z,18.73
2018-11-13T14:38:08.558Z,17.30
2018-11-13T14:40:39.897Z,17.37
2018-11-13T14:43:09.380Z,16.40
2018-11-13T14:45:38.590Z,16.77
2018-11-13T14:48:08.310Z,17.23
2018-11-13T14:50:37.846Z,16.30
2018-11-13T14:53:07.990Z,17.33
2018-11-13T14:55:41.208Z,16.63
2018-11-13T14:58:11.772Z,15.60
2018-11-13T15:00:41.251Z,15.67
2018-11-13T15:03:13.625Z,15.17
2018-11-13T15:05:42.784Z,16.10
2018-11-13T15:08:12.338Z,15.87
2018-11-13T15:10:46.955Z,16.37
2018-11-13T15:13:16.248Z,16.70
2018-11-13T15:15:45.455Z,16.90
2018-11-13T15:18:14.631Z,15.27
2018-11-13T15:20:44.322Z,15.83
2018-11-13T15:23:13.999Z,14.83
2018-11-13T15:25:43.181Z,16.40
2018-11-13T15:28:12.795Z,15.07
2018-11-13T15:30:45.437Z,15.77
2018-11-13T15:33:18.661Z,16.73
2018-11-13T15:35:47.794Z,17.83
2018-11-13T15:38:16.989Z,17.63
2018-11-13T15:40:46.185Z,17.60
2018-11-13T15:43:15.345Z,18.03
2018-11-13T15:45:44.497Z,17.07
2018-11-13T15:48:14.564Z,18.00
2018-11-13T15:50:43.863Z,17.00
2018-11-13T15:53:13.083Z,19.10
2018-11-13T15:55:42.130Z,17.27
2018-11-13T15:58:11.225Z,17.93
2018-11-13T16:00:41.385Z,17.77
2018-11-13T16:03:13.097Z,19.17
2018-11-13T16:05:44.335Z,21.00
2018-11-13T16:08:13.645Z,21.63
2018-11-13T16:10:42.794Z,20.47
2018-11-13T16:13:12.171Z,17.97
2018-11-13T16:15:41.558Z,16.83
2018-11-13T16:18:13.226Z,17.47
2018-11-13T16:20:42.357Z,19.83
2018-11-13T16:23:11.501Z,20.03
2018-11-13T16:25:40.606Z,19.07
2018-11-13T16:28:09.703Z,17.90
2018-11-13T16:30:39.712Z,18.17
2018-11-13T16:33:08.912Z,17.77
2018-11-13T16:35:38.029Z,17.37
2018-11-13T16:38:08.938Z,17.17
2018-11-13T16:40:37.939Z,19.00
2018-11-13T16:43:07.047Z,19.60
2018-11-13T16:45:36.577Z,20.00
2018-11-13T16:48:06.723Z,18.90
2018-11-13T16:50:37.037Z,19.13
2018-11-13T16:53:06.734Z,19.53
2018-11-13T16:55:40.924Z,19.10
2018-11-13T16:58:11.717Z,19.97
2018-11-13T17:00:41.059Z,20.77
2018-11-13T17:03:10.016Z,18.53
2018-11-13T17:05:39.081Z,20.67
2018-11-13T17:08:08.305Z,20.43
2018-11-13T17:10:40.272Z,20.67
2018-11-13T17:13:09.452Z,18.63
2018-11-13T17:15:38.926Z,21.67
2018-11-13T17:18:08.372Z,21.97
2018-11-13T17:20:37.482Z,21.40
2018-11-13T17:23:06.600Z,22.40
2018-11-13T17:25:37.240Z,21.07
2018-11-13T17:28:07.105Z,23.80
2018-11-13T17:30:36.729Z,23.30
2018-11-13T17:33:07.637Z,23.37
2018-11-13T17:35:36.722Z,24.30
2018-11-13T17:38:06.377Z,25.03
2018-11-13T17:40:36.458Z,23.80
2018-11-13T17:43:06.774Z,25.53
2018-11-13T17:45:37.364Z,25.00
2018-11-13T17:48:07.723Z,24.53
2018-11-13T17:50:40.038Z,24.57
2018-11-13T17:53:10.289Z,23.70
2018-11-13T17:55:39.879Z,24.83
2018-11-13T17:58:10.924Z,23.97
2018-11-13T18:00:42.408Z,25.17
2018-11-13T18:03:13.537Z,23.67
2018-11-13T18:05:43.807Z,22.97
2018-11-13T18:08:14.051Z,25.40
2018-11-13T18:10:45.496Z,25.07
2018-11-13T18:13:16.373Z,22.63
2018-11-13T18:15:47.376Z,22.60
2018-11-13T18:18:17.780Z,24.53
2018-11-13T18:20:48.236Z,25.63
2018-11-13T18:23:19.055Z,25.07
2018-11-13T18:25:50.308Z,23.47
2018-11-13T18:28:21.165Z,24.23
2018-11-13T18:30:51.877Z,24.00
2018-11-13T18:33:22.580Z,23.77
2018-11-13T18:35:52.794Z,24.43
2018-11-13T18:38:23.086Z,25.50
2018-11-13T18:40:52.888Z,25.00
2018-11-13T18:43:22.339Z,26.17
2018-11-13T18:45:51.623Z,25.77
2018-11-13T18:48:20.877Z,23.90
2018-11-13T18:50:50.028Z,25.17
2018-11-13T18:53:19.203Z,26.03
2018-11-13T18:55:48.296Z,25.10
2018-11-13T18:58:17.616Z,24.73
2018-11-13T19:00:47.553Z,26.60
2018-11-13T19:03:16.628Z,25.67
2018-11-13T19:05:45.928Z,24.93
2018-11-13T19:08:15.132Z,26.37
2018-11-13T19:10:45.639Z,26.33
2018-11-13T19:13:17.276Z,25.97
2018-11-13T19:15:49.943Z,26.00
2018-11-13T19:18:19.869Z,25.80
2018-11-13T19:20:49.314Z,25.53
2018-11-13T19:23:19.424Z,26.07
2018-11-13T19:25:49.316Z,24.90
2018-11-13T19:28:18.681Z,25.30
2018-11-13T19:30:47.914Z,26.50
2018-11-13T19:33:17.056Z,25.67
2018-11-13T19:35:46.341Z,26.43
2018-11-13T19:38:15.603Z,25.67
2018-11-13T19:40:45.273Z,26.60
2018-11-13T19:43:16.271Z,24.97
2018-11-13T19:45:46.066Z,24.60
2018-11-13T19:48:15.793Z,26.63
2018-11-13T19:50:45.562Z,26.67
2018-11-13T19:53:15.800Z,26.43
2018-11-13T19:55:45.816Z,28.47
2018-11-13T19:58:15.638Z,27.57
2018-11-13T20:00:45.633Z,26.37
2018-11-13T20:03:15.575Z,27.73
2018-11-13T20:05:45.156Z,27.33
2018-11-13T20:08:14.379Z,26.77
2018-11-13T20:10:43.538Z,32.90
2018-11-13T20:13:12.703Z,27.67
2018-11-13T20:15:41.835Z,25.90
2018-11-13T20:18:10.984Z,27.47
2018-11-13T20:20:40.158Z,27.57
2018-11-13T20:23:10.246Z,28.63
2018-11-13T20:25:39.379Z,26.07
2018-11-13T20:28:08.633Z,25.13
2018-11-13T20:30:39.329Z,25.73
2018-11-13T20:33:08.771Z,27.07
2018-11-13T20:35:38.572Z,26.27
2018-11-13T20:38:08.965Z,26.63
2018-11-13T20:40:39.313Z,27.30
2018-11-13T20:43:10.954Z,27.03
2018-11-13T20:45:40.590Z,28.13
2018-11-13T20:48:10.624Z,28.80
2018-11-13T20:50:40.942Z,27.70
2018-11-13T20:53:11.365Z,28.70
2018-11-13T20:55:42.036Z,26.50
2018-11-13T20:58:12.249Z,27.67
2018-11-13T21:00:42.548Z,26.93
2018-11-13T21:03:12.546Z,27.50
2018-11-13T21:05:43.150Z,27.80
2018-11-13T21:08:13.161Z,26.63
2018-11-13T21:10:43.308Z,27.03
2018-11-13T21:13:13.004Z,26.10
2018-11-13T21:15:42.999Z,28.27
2018-11-13T21:18:12.878Z,26.93
2018-11-13T21:20:42.707Z,26.60
2018-11-13T21:23:12.453Z,26.10
2018-11-13T21:25:42.263Z,25.70
2018-11-13T21:28:12.008Z,27.03
2018-11-13T21:30:41.645Z,26.37
2018-11-13T21:33:10.948Z,26.37
2018-11-13T21:35:40.403Z,25.83
2018-11-13T21:38:09.605Z,26.83
2018-11-13T21:40:38.980Z,25.77
2018-11-13T21:43:08.657Z,26.33
2018-11-13T21:45:38.287Z,26.43
2018-11-13T21:48:08.350Z,26.83
2018-11-13T21:50:38.417Z,26.20
2018-11-13T21:53:08.847Z,25.03
2018-11-13T21:55:39.507Z,25.73
2018-11-13T21:58:10.101Z,25.87
2018-11-13T22:00:41.567Z,27.40
2018-11-13T22:03:12.961Z,26.73
2018-11-13T22:05:43.967Z,28.00
2018-11-13T22:08:15.100Z,26.50
2018-11-13T22:10:46.123Z,27.80
2018-11-13T22:13:17.317Z,27.33
2018-11-13T22:15:47.517Z,27.13
2018-11-13T22:18:17.125Z,29.07
2018-11-13T22:20:46.733Z,27.97
2018-11-13T22:23:16.189Z,27.07
2018-11-13T22:25:45.445Z,27.80
2018-11-13T22:28:14.667Z,28.10
2018-11-13T22:30:43.805Z,26.87
2018-11-13T22:33:12.924Z,27.03
2018-11-13T22:35:42.016Z,28.03
2018-11-13T22:38:11.230Z,27.57
2018-11-13T22:40:40.341Z,26.63
2018-11-13T22:43:09.416Z,26.87
2018-11-13T22:45:38.506Z,26.40
2018-11-13T22:48:07.742Z,26.90
2018-11-13T22:50:36.921Z,25.60
2018-11-13T22:53:06.188Z,24.63
2018-11-13T22:55:35.343Z,23.30
2018-11-13T22:58:04.543Z,22.17
2018-11-13T23:00:38.939Z,21.17
2018-11-13T23:03:09.343Z,19.57
2018-11-13T23:05:38.579Z,19.90
2018-11-13T23:08:08.884Z,17.90
2018-11-13T23:10:38.090Z,17.10
2018-11-13T23:13:07.284Z,16.33
2018-11-13T23:15:36.349Z,16.17
2018-11-13T23:18:05.849Z,14.70
2018-11-13T23:20:35.033Z,13.60
2018-11-13T23:23:04.170Z,13.63
2018-11-13T23:25:33.999Z,13.40
2018-11-13T23:28:03.279Z,12.77
2018-11-13T23:30:32.458Z,12.83
2018-11-13T23:33:01.798Z,12.83
2018-11-13T23:35:30.837Z,13.30
2018-11-13T23:38:00.744Z,12.70
2018-11-13T23:40:30.145Z,12.77
2018-11-13T23:42:59.345Z,12.73
2018-11-13T23:45:28.595Z,12.50
2018-11-13T23:47:57.780Z,12.27
2018-11-13T23:50:27.093Z,13.03
2018-11-13T23:52:55.999Z,12.97
2018-11-13T23:55:25.181Z,11.53
2018-11-13T23:57:54.391Z,12.50
